Terminal Aerodrome Forecast
Issued by NWS Wichita, KS

Home | Current Version | Previous Version | Graphics & Text | Print | Product List | Glossary On
Versions: 1 2 3 4 5 6 7 8 9 10 11 12 13 14 15 16 17
000
FTUS43 KICT 251143
TAFICT
TAF
KICT 251143Z 2512/2612 00000KT P6SM SKC
     FM251500 24007KT P6SM BKN200
     FM252100 31013KT P6SM BKN080
     FM252300 35022G30KT P6SM OVC040=

USA.gov is the U.S. government's official web portal to all federal, state and local government web resources and services.